Troy, ID (83871)

11:41 PM PST on January 27, 2015 (GMT -0800)
Lamb Road | Change Station
CLOSE
Current Station
Personal Weather Station
Location: Troy, ID
Elevation: 2677 ft
Nearby Weather Stations

Elev 2677 ft 46.72 °N, 116.77 °W | Updated 2 minutes ago

Mostly Cloudy
Mostly Cloudy
38.6 °F
Feels Like 32 °F
N
10.0
Wind Variable Wind from WNW

Today
High -- | Low -- °F
--% Chance of Precip.
Yesterday
High -- | Low -- °F
Precip. -- in
7:17 AM 4:42 PM
Waxing Gibbous, 62% visible
Pressure 30.16 in
Visibility 10.0 miles
Clouds Overcast 400 ft
Windchill 32 °F
Dew Point 37 °F
Humidity 94%
Rainfall 0.00 in
Snow Depth Not available.
UV 0 out of 12
Pollen 2.30 out of 12
Air Quality Not available.
Flu Activity Not available.
SPECI KPUW 280721Z AUTO 24010KT 10SM OVC004 04/03 A3016 RMK AO2 T00390033

More Conditions Fewer Conditions

Pressure 30.16 in
Visibility 10.0 miles
Clouds Overcast 400 ft
Windchill 32 °F
Dew Point 37 °F
Humidity 94%
Rainfall 0.00 in
Snow Depth Not available.
UV 0 out of 12
Pollen 2.30 out of 12
Air Quality Not available.
Flu Activity Not available.
SPECI KPUW 280721Z AUTO 24010KT 10SM OVC004 04/03 A3016 RMK AO2 T00390033

More Conditions Fewer Conditions

10-Day Weather Forecast

Almanac

Astronomy

Jan. 27, 2015 Rise Set
Actual Time
Civil Twilight
Nautical Twilight
Astronomical Twilight
Moon
Length of Visible Light
Length of Day
Tomorrow will be .
, % of the Moon is Illuminated

Today's Extremes

State Highs State Lows

Community

WunderPhotos

Upload Photos

1,791,117 photos uploaded!

WunderBlogs® & News

Nearby

Air Quality

  Air Quality AQ Index Pollutant
Not available.

Snow Depth

Station Depth Elevation

Earthquake Activity

City Distance Mag. Time & Date
Minimum magnitude displayed is 2.5.

Coastal Water Temperatures

Place Temperature

Nearby Weather Stations